X  CloseMetar Aviation Weather Data     EKYT Aalborg

Temperature

4°C Temperature

4°C Dewpoint

100% Humidity



Wind

11 KM/H

 7 MPH

 3 M/S

 6 KTS



160°
South South
East
Current Conditions

Mostly Cloudy Mostly Cloudy
Pressure 1012.92 (hPa) - 29.91 (in)
Visibility 3.7 (mi) - 6 (km)
Airport
Airport-code EKYT

Location Aalborg 55 (km)

Metar:
EKYT 141850Z AUTO 16006KT 6000 BKN004/// 04/04 Q1013

Time: 14-11-2019 19:50